RUK36V EGCC-LEPA
Flight info
| Callsign | RUK36V |
|---|---|
| Flight time | N/A |
| Altitude | 35000 |
| Route | LISTO P18 TELBA L151 KIDLI UN859 AMB/N0440F370 UN859 SOPIL DCT BALAN DCT EVPOK DCT NARAK DCT GAI DCT LOMRA DCT ROCAN DCT IBRAP DCT LUKEV DCT LORES |
| Aircraft | B738/M-SDE2E3FGHIRWXY/LB1 |
Departure
| Time | 2026-04-30 19:45 |
|---|---|
| Airport | Manchester Airport (EGCC) |
Arrival
| Time | N/A |
|---|---|
| Airport | Palma de Mallorca Airport (LEPA) |
| Time | Latitude | Longitude | Altitude | Speed | Heading |
|---|---|---|---|---|---|
| 2026-04-30 19:02 | 53.36062 | -2.26840 | 254 ft | 0 kts | 313° |
| 2026-04-30 19:03 | 53.36060 | -2.26837 | 254 ft | 0 kts | 313° |
| 2026-04-30 19:05 | 53.36062 | -2.26840 | 254 ft | 9 kts | 313° |
| 2026-04-30 19:06 | 53.36060 | -2.26837 | 254 ft | 0 kts | 313° |
| 2026-04-30 19:34 | 53.36052 | -2.26823 | 254 ft | 3 kts | 313° |
| 2026-04-30 19:34 | 53.36028 | -2.26766 | 254 ft | 3 kts | 269° |
| 2026-04-30 19:35 | 53.36034 | -2.26732 | 254 ft | 2 kts | 231° |
| 2026-04-30 19:35 | 53.36048 | -2.26702 | 254 ft | 2 kts | 231° |
| 2026-04-30 19:35 | 53.36050 | -2.26699 | 254 ft | 0 kts | 231° |
| 2026-04-30 19:37 | 53.36048 | -2.26704 | 254 ft | 2 kts | 231° |
| 2026-04-30 19:37 | 53.36033 | -2.26735 | 254 ft | 5 kts | 231° |
| 2026-04-30 19:38 | 53.36005 | -2.26790 | 254 ft | 7 kts | 230° |
| 2026-04-30 19:38 | 53.35962 | -2.26839 | 254 ft | 8 kts | 184° |
| 2026-04-30 19:38 | 53.35910 | -2.26842 | 255 ft | 7 kts | 204° |
| 2026-04-30 19:38 | 53.35866 | -2.26910 | 255 ft | 10 kts | 231° |
| 2026-04-30 19:39 | 53.35823 | -2.27019 | 254 ft | 13 kts | 239° |
| 2026-04-30 19:39 | 53.35796 | -2.27118 | 254 ft | 9 kts | 269° |
| 2026-04-30 19:39 | 53.35819 | -2.27198 | 254 ft | 3 kts | 300° |
| 2026-04-30 19:39 | 53.35820 | -2.27201 | 254 ft | 0 kts | 297° |
| 2026-04-30 19:40 | 53.35817 | -2.27267 | 254 ft | 12 kts | 244° |
| 2026-04-30 19:40 | 53.35751 | -2.27399 | 254 ft | 17 kts | 229° |
| 2026-04-30 19:40 | 53.35664 | -2.27574 | 245 ft | 22 kts | 230° |
| 2026-04-30 19:40 | 53.35543 | -2.27778 | 237 ft | 27 kts | 224° |
| 2026-04-30 19:41 | 53.35412 | -2.27988 | 241 ft | 25 kts | 224° |
| 2026-04-30 19:41 | 53.35295 | -2.28178 | 232 ft | 22 kts | 225° |
| 2026-04-30 19:41 | 53.35215 | -2.28333 | 231 ft | 13 kts | 231° |
| 2026-04-30 19:41 | 53.35152 | -2.28465 | 226 ft | 16 kts | 231° |
| 2026-04-30 19:42 | 53.35084 | -2.28602 | 228 ft | 15 kts | 230° |
| 2026-04-30 19:42 | 53.35017 | -2.28733 | 226 ft | 15 kts | 229° |
| 2026-04-30 19:42 | 53.34947 | -2.28859 | 225 ft | 14 kts | 226° |
| 2026-04-30 19:42 | 53.34875 | -2.28980 | 220 ft | 15 kts | 224° |
| 2026-04-30 19:43 | 53.34821 | -2.29071 | 221 ft | 9 kts | 229° |
| 2026-04-30 19:43 | 53.34777 | -2.29158 | 215 ft | 11 kts | 232° |
| 2026-04-30 19:43 | 53.34726 | -2.29275 | 219 ft | 14 kts | 227° |
| 2026-04-30 19:44 | 53.34574 | -2.29320 | 212 ft | 9 kts | 153° |
| 2026-04-30 19:44 | 53.34544 | -2.29228 | 213 ft | 10 kts | 78° |
| 2026-04-30 19:44 | 53.34613 | -2.29070 | 217 ft | 36 kts | 51° |
| 2026-04-30 19:44 | 53.34915 | -2.28447 | 231 ft | 101 kts | 51° |
| 2026-04-30 19:45 | 53.35482 | -2.27277 | 264 ft | 154 kts | 49° |
| 2026-04-30 19:45 | 53.36188 | -2.25816 | 820 ft | 160 kts | 51° |
| 2026-04-30 19:45 | 53.36937 | -2.24361 | 1486 ft | 172 kts | 56° |
| 2026-04-30 19:45 | 53.37614 | -2.22667 | 2027 ft | 180 kts | 79° |
| 2026-04-30 19:46 | 53.37564 | -2.20534 | 2244 ft | 194 kts | 115° |
| 2026-04-30 19:46 | 53.36702 | -2.18757 | 2535 ft | 208 kts | 147° |
| 2026-04-30 19:46 | 53.35430 | -2.17543 | 3053 ft | 216 kts | 153° |
| 2026-04-30 19:46 | 53.33880 | -2.16889 | 3279 ft | 243 kts | 173° |
| 2026-04-30 19:47 | 53.32193 | -2.16908 | 4097 ft | 246 kts | 184° |
| 2026-04-30 19:47 | 53.31057 | -2.17108 | 4554 ft | 248 kts | 185° |
| 2026-04-30 19:47 | 53.28752 | -2.17541 | 5231 ft | 252 kts | 185° |
| 2026-04-30 19:47 | 53.26997 | -2.17866 | 6018 ft | 255 kts | 185° |
| 2026-04-30 19:48 | 53.25250 | -2.18167 | 6793 ft | 257 kts | 184° |
| 2026-04-30 19:48 | 53.23455 | -2.18460 | 7501 ft | 261 kts | 184° |
| 2026-04-30 19:48 | 53.21647 | -2.18749 | 8282 ft | 262 kts | 184° |
| 2026-04-30 19:48 | 53.19814 | -2.19039 | 8991 ft | 266 kts | 184° |
| 2026-04-30 19:49 | 53.17961 | -2.19329 | 9747 ft | 269 kts | 184° |
| 2026-04-30 19:49 | 53.14211 | -2.19913 | 10177 ft | 274 kts | 184° |
| 2026-04-30 19:49 | 53.12326 | -2.20206 | 10216 ft | 273 kts | 184° |
| 2026-04-30 19:50 | 53.10381 | -2.20509 | 10354 ft | 291 kts | 184° |
| 2026-04-30 19:50 | 53.08291 | -2.20833 | 10544 ft | 312 kts | 184° |
| 2026-04-30 19:50 | 53.06082 | -2.21176 | 10982 ft | 323 kts | 184° |
| 2026-04-30 19:50 | 53.03868 | -2.21521 | 11633 ft | 326 kts | 184° |
| 2026-04-30 19:51 | 53.01606 | -2.21873 | 12384 ft | 327 kts | 184° |
| 2026-04-30 19:51 | 52.99339 | -2.22227 | 13119 ft | 329 kts | 184° |
| 2026-04-30 19:51 | 52.97051 | -2.22586 | 13885 ft | 331 kts | 184° |
| 2026-04-30 19:51 | 52.94753 | -2.22946 | 14569 ft | 333 kts | 183° |
| 2026-04-30 19:52 | 52.92427 | -2.23310 | 15213 ft | 338 kts | 183° |
| 2026-04-30 19:52 | 52.90080 | -2.23677 | 15873 ft | 341 kts | 183° |
| 2026-04-30 19:52 | 52.87704 | -2.24048 | 16543 ft | 344 kts | 183° |
| 2026-04-30 19:52 | 52.85315 | -2.24518 | 17180 ft | 349 kts | 188° |
| 2026-04-30 19:53 | 52.82923 | -2.25394 | 17838 ft | 353 kts | 191° |
| 2026-04-30 19:53 | 52.80524 | -2.26371 | 18509 ft | 357 kts | 191° |
| 2026-04-30 19:53 | 52.78107 | -2.27356 | 19092 ft | 359 kts | 191° |
| 2026-04-30 19:53 | 52.75677 | -2.28322 | 19707 ft | 360 kts | 191° |
| 2026-04-30 19:54 | 52.73228 | -2.29275 | 20335 ft | 362 kts | 190° |
| 2026-04-30 19:54 | 52.70777 | -2.30219 | 20922 ft | 364 kts | 190° |
| 2026-04-30 19:54 | 52.68278 | -2.30870 | 21464 ft | 364 kts | 178° |
| 2026-04-30 19:54 | 52.65781 | -2.30299 | 22039 ft | 364 kts | 164° |
| 2026-04-30 19:55 | 52.63424 | -2.28760 | 22602 ft | 367 kts | 151° |
| 2026-04-30 19:55 | 52.61270 | -2.26488 | 23163 ft | 369 kts | 147° |
| 2026-04-30 19:55 | 52.59141 | -2.24093 | 23676 ft | 372 kts | 147° |
| 2026-04-30 19:55 | 52.56999 | -2.21669 | 24125 ft | 375 kts | 147° |
| 2026-04-30 19:56 | 52.54833 | -2.19240 | 24560 ft | 378 kts | 147° |
| 2026-04-30 19:56 | 52.52649 | -2.16818 | 24983 ft | 380 kts | 147° |
| 2026-04-30 19:56 | 52.50443 | -2.14392 | 25396 ft | 383 kts | 148° |
| 2026-04-30 19:56 | 52.48216 | -2.11955 | 25784 ft | 386 kts | 147° |
| 2026-04-30 19:57 | 52.45968 | -2.09502 | 26155 ft | 390 kts | 147° |
| 2026-04-30 19:57 | 52.43701 | -2.07033 | 26540 ft | 392 kts | 147° |
| 2026-04-30 19:57 | 52.41423 | -2.04555 | 26927 ft | 395 kts | 147° |
| 2026-04-30 19:57 | 52.39133 | -2.02064 | 27298 ft | 398 kts | 147° |
| 2026-04-30 19:58 | 52.36815 | -1.99544 | 27669 ft | 400 kts | 147° |
| 2026-04-30 19:58 | 52.34486 | -1.97018 | 28001 ft | 403 kts | 148° |
| 2026-04-30 19:58 | 52.32149 | -1.94486 | 28418 ft | 404 kts | 148° |
| 2026-04-30 19:58 | 52.29831 | -1.91978 | 28783 ft | 406 kts | 148° |
| 2026-04-30 19:59 | 52.27469 | -1.89426 | 29110 ft | 409 kts | 148° |
| 2026-04-30 19:59 | 52.25090 | -1.86865 | 29430 ft | 412 kts | 148° |
| 2026-04-30 19:59 | 52.20266 | -1.81714 | 30123 ft | 415 kts | 148° |
| 2026-04-30 20:00 | 52.17858 | -1.79147 | 30594 ft | 413 kts | 148° |
| 2026-04-30 20:00 | 52.15464 | -1.76595 | 31021 ft | 411 kts | 148° |
| 2026-04-30 20:00 | 52.13071 | -1.74048 | 31361 ft | 411 kts | 148° |
| 2026-04-30 20:00 | 52.10674 | -1.71500 | 31684 ft | 412 kts | 148° |
| 2026-04-30 20:01 | 52.05875 | -1.66426 | 32398 ft | 410 kts | 148° |
| 2026-04-30 20:01 | 52.03478 | -1.63915 | 32736 ft | 410 kts | 148° |
| 2026-04-30 20:01 | 52.01080 | -1.61400 | 33023 ft | 411 kts | 148° |
| 2026-04-30 20:02 | 51.96297 | -1.56317 | 33677 ft | 410 kts | 148° |
| 2026-04-30 20:02 | 51.93911 | -1.53779 | 34041 ft | 409 kts | 148° |
| 2026-04-30 20:03 | 51.89148 | -1.48732 | 34561 ft | 410 kts | 148° |
| 2026-04-30 20:03 | 51.86753 | -1.46205 | 34773 ft | 411 kts | 148° |
| 2026-04-30 20:03 | 51.84354 | -1.43688 | 35085 ft | 409 kts | 148° |
| 2026-04-30 20:03 | 51.81953 | -1.41174 | 35161 ft | 413 kts | 148° |
| 2026-04-30 20:04 | 51.77045 | -1.36296 | 35175 ft | 414 kts | 154° |
| 2026-04-30 20:05 | 51.68963 | -1.31981 | 35185 ft | 407 kts | 163° |
| 2026-04-30 20:05 | 51.60858 | -1.27909 | 35184 ft | 407 kts | 162° |
| 2026-04-30 20:06 | 51.55460 | -1.25165 | 35188 ft | 407 kts | 162° |
| 2026-04-30 20:06 | 51.50058 | -1.22433 | 35186 ft | 407 kts | 162° |
| 2026-04-30 20:07 | 51.44882 | -1.18903 | 35190 ft | 408 kts | 154° |